Аэропорт: Толмачёво. Новосибирск

ICAO: UNNT

METAR:
2021-01-19 11:30:00
UNNT 191130Z 22003MPS CAVOK M19/M23 Q1020 R25/410160 R16/410160 NOSIG RMK QFE755/1006
METAR:
2021-01-19 08:00:00
TAF UNNT 190800Z 1909/2009 23003G08MPS 8000 NSC FM191800 26003MPS 6000 BKN040 TEMPO 1920/2005 3000 -SN BR BKN011 FM200500 06003G08MPS 8000 SCT016